Latest Coastal Weather Observations for Creal Reef

IDQ60701

Issued at 2:21 am EST Friday 31 July 2015 (issued every 10 minutes, with the page automatically refreshed every 10 minutes)

About coastal observations | Map of coastal stations | Coastal observations for QLD | Marine services | Other Formats
Station Details ID: 200736 Name: CREAL REEF Lat: -20.53 Lon: 150.38 Height: 1.7 m
Data from the previous 72 hours. | See also: Recent months for locations in Queensland
Date/Time
EST
Temp

°C
Wind Pressure Rain
since 9am
mm
Weather Cloud Vis
km
Sea
Height
m
Swell
Dir
 
Speed
knots
Gust
knots
hPa Trend Height
m
Period
s
Dir
31/02:20am 21.1 SE 18 20 1020.4 - - - - - - - - -
31/02:00am 21.4 SE 20 24 1020.8 - - - - - - - - -
31/01:30am 21.6 SE 20 23 1020.9 - - - - - - - - -
31/01:20am 21.3 SE 17 - 1020.9 - - - - - - - - -
31/01:00am 21.1 SE 19 22 1021.2 - - - - - - - - -
31/12:30am 21.1 SE 15 17 1021.5 - - - - - - - - -
31/12:20am 20.7 ESE 17 - 1021.6 - - - - - - - - -
31/12:00am 21.0 SSE 18 22 1021.7 - - - - - - - - -
 
Date/Time
EST
Temp

°C
Wind Pressure Rain
since 9am
mm
Weather Cloud Vis
km
Sea
Height
m
Swell
Dir
 
Speed
knots
Gust
knots
hPa Trend Height
m
Period
s
Dir
30/11:30pm 21.5 SE 21 25 1021.7 - - - - - - - - -
30/11:20pm 21.1 SE 20 - 1021.7 - - - - - - - - -
30/11:00pm 21.2 SE 21 24 1022.0 - - - - - - - - -
30/10:30pm 20.4 ESE 23 27 1022.1 - - - - - - - - -
30/10:20pm 20.6 ESE 20 - 1022.0 - - - - - - - - -
30/10:16pm 20.8 ESE 20 24 1022.1 - - - - - - - - -
30/10:00pm 21.5 SSE 18 23 1022.2 - - - - - - - - -
30/09:30pm 21.5 SE 17 22 1022.1 - - - - - - - - -
30/09:20pm 21.6 SE 17 - 1022.0 - - - - - - - - -
30/09:00pm 21.6 SE 19 22 1022.1 - - - - - - - - -
30/08:30pm 21.6 SE 17 22 1021.8 - - - - - - - - -
30/08:20pm 21.6 SE 17 - 1021.6 - - - - - - - - -
30/08:00pm 21.6 SE 17 21 1021.5 - - - - - - - - -
30/07:30pm 21.6 SE 20 24 1021.1 - - - - - - - - -
30/07:20pm 21.7 SE 21 - 1020.8 - - - - - - - - -
30/07:00pm 21.7 SE 20 23 1020.8 - - - - - - - - -
30/06:30pm 21.8 SSE 19 23 1020.6 - - - - - - - - -
30/06:20pm 21.9 SSE 20 - 1020.5 - - - - - - - - -
30/06:00pm 21.8 SE 20 23 1020.3 - - - - - - - - -
30/05:30pm 22.0 SE 21 24 1020.1 - - - - - - - - -
30/05:20pm 22.1 SE 21 - 1019.9 - - - - - - - - -
30/05:00pm 22.2 SE 22 25 1020.0 - - - - - - - - -
30/04:30pm 21.1 SSE 21 25 1020.0 - - - - - - - - -
30/04:20pm 20.8 SE 22 - 1019.8 - - - - - - - - -
30/04:17pm 21.6 SE 20 31 1019.8 - - - - - - - - -
30/04:00pm 21.9 SE 20 24 1019.9 - - - - - - - - -
30/03:30pm 22.0 SE 20 23 1019.9 - - - - - - - - -
30/03:20pm 22.2 SE 20 - 1019.9 - - - - - - - - -
30/03:00pm 22.2 SE 19 22 1020.0 - - - - - - - - -
30/02:30pm 21.6 SSE 18 23 1020.0 - - - - - - - - -
30/02:20pm 22.1 SE 21 - 1019.9 - - - - - - - - -
30/02:00pm 21.7 SE 15 18 1020.2 - - - - - - - - -
30/01:30pm 20.1 ESE 22 30 1020.8 - - - - - - - - -
30/01:20pm 21.5 SE 20 - 1020.6 - - - - - - - - -
30/01:00pm 22.2 SE 19 23 1021.0 - - - - - - - - -
30/12:30pm 21.1 SE 17 19 1021.4 - - - - - - - - -
30/12:20pm 21.0 SE 17 - 1021.4 - - - - - - - - -
30/12:00pm 21.5 SE 19 23 1021.9 - - - - - - - - -
30/11:30am 19.2 SE 22 32 1022.5 - - - - - - - - -
30/11:22am 19.8 SE 21 32 1022.5 - - - - - - - - -
30/11:20am 21.2 SE 19 - 1022.4 - - - - - - - - -
30/11:00am 20.8 ESE 24 31 1022.7 - - - - - - - - -
30/10:58am 20.8 ESE 26 31 1022.7 - - - - - - - - -
30/10:30am 21.3 SSE 20 24 1022.9 - - - - - - - - -
30/10:20am 21.3 SE 21 - 1022.7 - - - - - - - - -
30/10:00am 21.2 SSE 20 25 1022.9 - - - - - - - - -
30/09:30am 21.1 SE 21 25 1023.0 - - - - - - - - -
30/09:20am 21.3 SSE 20 - 1022.9 - - - - - - - - -
30/09:00am 21.5 SE 22 25 1022.9 - - - - - - - - -
30/08:30am 21.6 SE 22 25 1022.7 - - - - - - - - -
30/08:20am 21.7 SE 21 - 1022.5 - - - - - - - - -
30/08:00am 21.0 SE 21 23 1022.4 - - - - - - - - -
30/07:30am 20.3 SSE 18 23 1022.1 - - - - - - - - -
30/07:20am 19.2 SSE 22 - 1022.0 - - - - - - - - -
30/07:15am 20.3 SSE 21 32 1022.0 - - - - - - - - -
30/07:00am 21.0 SE 21 24 1021.8 - - - - - - - - -
30/06:30am 20.6 SSE 21 25 1021.7 - - - - - - - - -
30/06:20am 20.6 SSE 22 - 1021.6 - - - - - - - - -
30/06:00am 20.5 SSE 20 25 1021.7 - - - - - - - - -
30/05:30am 21.1 SE 22 28 1021.4 - - - - - - - - -
30/05:20am 20.8 SE 24 - 1021.3 - - - - - - - - -
30/05:01am 21.1 SSE 19 29 1021.2 - - - - - - - - -
30/05:00am 21.0 SSE 19 27 1021.2 - - - - - - - - -
30/04:30am 21.1 SSE 23 26 1021.2 - - - - - - - - -
30/04:20am 21.1 SSE 22 - 1021.1 - - - - - - - - -
30/04:00am 21.3 SE 23 28 1021.1 - - - - - - - - -
30/03:30am 21.2 SSE 21 26 1021.1 - - - - - - - - -
30/03:20am 21.4 SSE 20 - 1021.1 - - - - - - - - -
30/03:00am 21.4 SSE 21 25 1021.4 - - - - - - - - -
30/02:30am 21.5 SSE 21 26 1021.6 - - - - - - - - -
30/02:20am 21.5 SE 22 - 1021.6 - - - - - - - - -
30/02:00am 21.5 SE 22 25 1021.9 - - - - - - - - -
30/01:30am 21.6 SE 21 25 1022.5 - - - - - - - - -
30/01:20am 21.7 SE 21 - 1022.5 - - - - - - - - -
30/01:00am 21.6 SE 22 25 1022.8 - - - - - - - - -
30/12:30am 21.7 SE 21 25 1023.0 - - - - - - - - -
30/12:20am 21.6 SE 21 - 1023.0 - - - - - - - - -
30/12:00am 21.7 SE 22 25 1023.1 - - - - - - - - -
 
Date/Time
EST
Temp

°C
Wind Pressure Rain
since 9am
mm
Weather Cloud Vis
km
Sea
Height
m
Swell
Dir
 
Speed
knots
Gust
knots
hPa Trend Height
m
Period
s
Dir
29/11:30pm 21.9 SE 21 25 1023.2 - - - - - - - - -
29/11:20pm 21.8 SE 22 - 1023.3 - - - - - - - - -
29/11:00pm 21.8 SE 21 26 1023.6 - - - - - - - - -
29/10:30pm 21.8 SE 21 25 1023.9 - - - - - - - - -
29/10:20pm 21.7 SE 22 - 1023.8 - - - - - - - - -
29/10:00pm 21.9 SE 24 28 1023.9 - - - - - - - - -
29/09:30pm 22.0 SE 25 29 1024.1 - - - - - - - - -
29/09:20pm 21.9 SE 26 - 1024.0 - - - - - - - - -
29/09:00pm 22.0 SE 25 31 1024.0 - - - - - - - - -
29/08:30pm 22.0 SE 22 27 1024.0 - - - - - - - - -
29/08:20pm 22.0 ESE 23 - 1023.8 - - - - - - - - -
29/08:00pm 21.9 SE 24 29 1023.8 - - - - - - - - -
29/07:30pm 21.8 SE 25 29 1023.4 - - - - - - - - -
29/07:20pm 21.7 SE 24 - 1023.2 - - - - - - - - -
29/07:00pm 21.6 SE 25 29 1023.1 - - - - - - - - -
29/06:30pm 21.7 SE 25 30 1022.7 - - - - - - - - -
29/06:20pm 21.6 SE 25 - 1022.6 - - - - - - - - -
29/06:00pm 21.7 SE 26 31 1022.6 - - - - - - - - -
29/05:30pm 21.8 SE 27 32 1022.3 - - - - - - - - -
29/05:20pm 21.4 SE 25 - 1022.2 - - - - - - - - -
29/05:00pm 21.6 SSE 25 32 1022.1 - - - - - - - - -
29/04:30pm 21.7 SE 26 31 1021.9 - - - - - - - - -
29/04:20pm 21.8 SSE 26 - 1021.8 - - - - - - - - -
29/04:00pm 22.0 SE 26 31 1021.8 - - - - - - - - -
29/03:30pm 21.8 SE 27 31 1021.9 - - - - - - - - -
29/03:20pm 21.9 SE 26 - 1021.8 - - - - - - - - -
29/03:00pm 21.9 SE 28 32 1021.9 - - - - - - - - -
29/02:30pm 21.9 SE 26 31 1021.8 - - - - - - - - -
29/02:20pm 21.7 SE 26 - 1021.8 - - - - - - - - -
29/02:00pm 21.6 SE 27 32 1022.1 - - - - - - - - -
29/01:30pm 21.7 SE 28 32 1022.3 - - - - - - - - -
29/01:20pm 21.8 SSE 28 - 1022.4 - - - - - - - - -
29/01:00pm 21.6 SSE 27 33 1022.7 - - - - - - - - -
29/12:30pm 21.9 SSE 27 33 1023.2 - - - - - - - - -
29/12:20pm 21.8 SSE 28 - 1023.4 - - - - - - - - -
29/12:00pm 21.5 SSE 26 34 1023.8 - - - - - - - - -
29/11:30am 21.5 SSE 28 33 1024.3 - - - - - - - - -
29/11:20am 21.5 SSE 27 - 1024.3 - - - - - - - - -
29/11:00am 21.3 SSE 28 33 1024.5 - - - - - - - - -
29/10:30am 21.0 SSE 28 33 1024.7 - - - - - - - - -
29/10:20am 21.0 SE 29 - 1024.6 - - - - - - - - -
29/10:00am 21.3 SSE 28 33 1024.9 - - - - - - - - -
29/09:30am 21.5 SE 27 34 1025.0 - - - - - - - - -
29/09:20am 21.3 SSE 27 - 1024.7 - - - - - - - - -
29/09:00am 21.3 SSE 28 35 1024.7 - - - - - - - - -
29/08:30am 21.3 SSE 27 35 1024.6 - - - - - - - - -
29/08:20am 21.2 SE 29 - 1024.5 - - - - - - - - -
29/08:00am 21.4 SE 29 34 1024.3 - - - - - - - - -
29/07:47am 21.0 SSE 26 36 1024.3 - - - - - - - - -
29/07:30am 21.3 SSE 26 33 1024.2 - - - - - - - - -
29/07:20am 21.6 SSE 27 - 1024.1 - - - - - - - - -
29/07:00am 21.5 SSE 29 34 1024.0 - - - - - - - - -
29/06:30am 21.6 SE 28 33 1023.7 - - - - - - - - -
29/06:20am 21.1 SSE 28 - 1023.5 - - - - - - - - -
29/06:00am 21.6 SSE 28 35 1023.3 - - - - - - - - -
29/05:30am 21.7 SE 29 36 1023.1 - - - - - - - - -
29/05:20am 21.5 SE 30 - 1022.9 - - - - - - - - -
29/05:00am 21.5 SE 28 33 1022.7 - - - - - - - - -
29/04:30am 21.6 SE 28 34 1022.6 - - - - - - - - -
29/04:20am 21.3 SE 30 - 1022.4 - - - - - - - - -
29/04:00am 21.3 SE 30 34 1022.5 - - - - - - - - -
29/03:30am 21.5 SE 29 34 1022.5 - - - - - - - - -
29/03:20am 21.7 SE 30 - 1022.5 - - - - - - - - -
29/03:00am 21.6 SSE 30 34 1022.6 - - - - - - - - -
29/02:30am 21.4 SE 30 36 1022.6 - - - - - - - - -
29/02:20am 21.4 SSE 31 - 1022.5 - - - - - - - - -
29/02:00am 20.9 SSE 27 33 1022.8 - - - - - - - - -
29/01:30am 21.1 SSE 28 33 1023.0 - - - - - - - - -
29/01:20am 21.0 SSE 26 - 1022.9 - - - - - - - - -
29/01:00am 21.1 SSE 25 30 1023.2 - - - - - - - - -
29/12:30am 21.3 SSE 25 30 1023.4 - - - - - - - - -
29/12:20am 21.5 SE 27 - 1023.3 - - - - - - - - -
29/12:00am 21.7 SSE 22 28 1023.4 - - - - - - - - -
 
Date/Time
EST
Temp

°C
Wind Pressure Rain
since 9am
mm
Weather Cloud Vis
km
Sea
Height
m
Swell
Dir
 
Speed
knots
Gust
knots
hPa Trend Height
m
Period
s
Dir
28/11:30pm 21.5 SSE 19 26 1023.6 - - - - - - - - -
28/11:20pm 21.4 SSE 22 - 1023.5 - - - - - - - - -
28/11:00pm 21.3 SSE 24 28 1023.8 - - - - - - - - -
28/10:30pm 21.2 SSE 23 28 1024.0 - - - - - - - - -
28/10:20pm 21.4 SSE 23 - 1024.0 - - - - - - - - -
28/10:00pm 21.4 SSE 22 28 1024.2 - - - - - - - - -
28/09:30pm 21.3 SSE 24 27 1024.2 - - - - - - - - -
28/09:20pm 21.1 SSE 23 - 1024.1 - - - - - - - - -
28/09:00pm 21.1 SSE 21 26 1024.3 - - - - - - - - -
28/08:30pm 21.0 SSE 23 27 1024.3 - - - - - - - - -
28/08:20pm 21.0 SSE 22 - 1024.2 - - - - - - - - -
28/08:00pm 20.9 SSE 23 27 1024.3 - - - - - - - - -
28/07:30pm 20.8 SSE 22 27 1024.2 - - - - - - - - -
28/07:20pm 20.8 SSE 21 - 1024.0 - - - - - - - - -
28/07:00pm 20.7 SSE 22 27 1023.9 - - - - - - - - -
28/06:30pm 20.5 SSE 22 27 1023.6 - - - - - - - - -
28/06:20pm 20.8 SSE 23 - 1023.4 - - - - - - - - -
28/06:00pm 20.5 SSE 22 27 1023.2 - - - - - - - - -
28/05:30pm 20.4 SSE 22 30 1022.9 - - - - - - - - -
28/05:20pm 20.4 SSE 23 - 1022.7 - - - - - - - - -
28/05:00pm 20.3 SSE 24 30 1022.5 - - - - - - - - -
28/04:30pm 20.4 SSE 23 29 1022.2 - - - - - - - - -
28/04:20pm 20.4 SSE 24 - 1021.9 - - - - - - - - -
28/04:00pm 20.5 SSE 22 29 1022.1 - - - - - - - - -
28/03:30pm 20.5 SSE 25 31 1021.8 - - - - - - - - -
28/03:20pm 20.5 SSE 26 - 1021.7 - - - - - - - - -
28/03:00pm 20.4 SSE 23 29 1021.8 - - - - - - - - -
28/02:30pm 20.4 SSE 24 31 1021.9 - - - - - - - - -
28/02:20pm 20.4 SSE 23 - 1021.9 - - - - - - - - -
28/02:00pm 20.6 SSE 23 30 1021.9 - - - - - - - - -
28/01:30pm 20.9 SSE 23 30 1022.3 - - - - - - - - -
28/01:20pm 20.6 SSE 25 - 1022.2 - - - - - - - - -
28/01:00pm 20.4 SSE 27 33 1022.5 - - - - - - - - -
28/12:30pm 20.6 SSE 28 34 1022.7 - - - - - - - - -
28/12:20pm 20.5 SSE 28 - 1022.7 - - - - - - - - -
28/12:00pm 20.6 SSE 28 33 1023.1 - - - - - - - - -
28/11:30am 20.9 SSE 27 32 1023.6 - - - - - - - - -
28/11:20am 20.8 SSE 26 - 1023.7 - - - - - - - - -
28/11:00am 21.1 SSE 25 33 1024.0 - - - - - - - - -
28/10:30am 21.0 SSE 25 31 1024.1 - - - - - - - - -
28/10:20am 21.2 SSE 25 - 1024.1 - - - - - - - - -
28/10:00am 21.1 SSE 26 33 1024.2 - - - - - - - - -
28/09:30am 21.2 SSE 25 31 1024.0 - - - - - - - - -
28/09:20am 21.1 SSE 26 - 1023.8 - - - - - - - - -
28/09:00am 21.3 SSE 24 30 1023.8 - - - - - - - - -
28/08:30am 21.2 SSE 24 31 1023.5 - - - - - - - - -
28/08:20am 21.4 SSE 25 - 1023.2 - - - - - - - - -
28/08:00am 21.5 SSE 23 28 1023.1 - - - - - - - - -
28/07:30am 22.0 SSE 21 28 1022.8 - - - - - - - - -
28/07:20am 21.8 SSE 20 - 1022.6 - - - - - - - - -
28/07:00am 21.9 SSE 24 29 1022.3 - - - - - - - - -
28/06:30am 22.3 SSE 19 24 1022.2 - - - - - - - - -
28/06:20am 22.3 SSE 21 - 1022.1 - - - - - - - - -
28/06:00am 22.3 SSE 19 25 1022.1 - - - - - - - - -
28/05:30am 22.4 SSE 18 23 1022.0 - - - - - - - - -
28/05:20am 22.2 SSE 17 - 1021.8 - - - - - - - - -
28/05:00am 22.4 SSE 17 23 1021.8 - - - - - - - - -
28/04:30am 22.3 SSE 19 23 1021.8 - - - - - - - - -
28/04:20am 22.3 SSE 19 - 1021.7 - - - - - - - - -
28/04:00am 22.2 SSE 17 21 1021.7 - - - - - - - - -
28/03:30am 22.3 SSE 18 21 1021.8 - - - - - - - - -
28/03:20am 22.0 SSE 16 - 1021.7 - - - - - - - - -
28/03:00am 22.1 SE 19 21 1021.8 - - - - - - - - -
28/02:30am 22.2 SE 17 19 1021.9 - - - - - - - - -

Other Formats:

Comma delimited format used in spreadsheet applications
http://www.bom.gov.au/fwo/IDQ60701/IDQ60701.94371.axf

JavaScript Object Notation format (JSON) in row-major order
http://www.bom.gov.au/fwo/IDQ60701/IDQ60701.94371.json